sensor_id;sensor_type;location;lat;lon;timestamp;P1;durP1;ratioP1;P2;durP2;ratioP2
10645;SDS011;5371;49.782;9.932;2022-11-20T00:01:26;33.83;;;20.07;;
10645;SDS011;5371;49.782;9.932;2022-11-20T00:03:56;34.60;;;20.27;;
10645;SDS011;5371;49.782;9.932;2022-11-20T00:06:26;34.90;;;20.17;;
10645;SDS011;5371;49.782;9.932;2022-11-20T00:08:54;35.23;;;20.67;;
10645;SDS011;5371;49.782;9.932;2022-11-20T00:11:23;33.83;;;19.27;;
10645;SDS011;5371;49.782;9.932;2022-11-20T00:13:52;34.00;;;20.13;;
10645;SDS011;5371;49.782;9.932;2022-11-20T00:16:21;34.00;;;19.73;;
10645;SDS011;5371;49.782;9.932;2022-11-20T00:18:49;34.90;;;20.10;;
10645;SDS011;5371;49.782;9.932;2022-11-20T00:21:17;35.07;;;20.33;;
10645;SDS011;5371;49.782;9.932;2022-11-20T00:23:47;35.77;;;20.53;;
10645;SDS011;5371;49.782;9.932;2022-11-20T00:26:15;33.80;;;19.43;;
10645;SDS011;5371;49.782;9.932;2022-11-20T00:28:43;36.37;;;20.53;;
10645;SDS011;5371;49.782;9.932;2022-11-20T00:31:15;34.43;;;20.70;;
10645;SDS011;5371;49.782;9.932;2022-11-20T00:33:43;34.93;;;20.60;;
10645;SDS011;5371;49.782;9.932;2022-11-20T00:36:11;35.73;;;20.70;;
10645;SDS011;5371;49.782;9.932;2022-11-20T00:38:39;35.77;;;20.47;;
10645;SDS011;5371;49.782;9.932;2022-11-20T00:41:08;36.47;;;20.83;;
10645;SDS011;5371;49.782;9.932;2022-11-20T00:43:36;33.77;;;20.70;;
10645;SDS011;5371;49.782;9.932;2022-11-20T00:46:04;35.67;;;21.77;;
10645;SDS011;5371;49.782;9.932;2022-11-20T00:48:32;33.77;;;20.40;;
10645;SDS011;5371;49.782;9.932;2022-11-20T00:50:59;38.13;;;21.67;;
10645;SDS011;5371;49.782;9.932;2022-11-20T00:53:26;36.37;;;21.07;;
10645;SDS011;5371;49.782;9.932;2022-11-20T00:55:54;35.13;;;21.43;;
10645;SDS011;5371;49.782;9.932;2022-11-20T00:58:24;38.83;;;22.10;;
10645;SDS011;5371;49.782;9.932;2022-11-20T01:00:59;38.23;;;21.80;;
10645;SDS011;5371;49.782;9.932;2022-11-20T01:03:27;33.13;;;20.37;;
10645;SDS011;5371;49.782;9.932;2022-11-20T01:05:54;40.33;;;22.43;;
10645;SDS011;5371;49.782;9.932;2022-11-20T01:08:28;38.13;;;21.80;;
10645;SDS011;5371;49.782;9.932;2022-11-20T01:10:58;40.77;;;22.27;;
10645;SDS011;5371;49.782;9.932;2022-11-20T01:13:27;39.60;;;22.73;;
10645;SDS011;5371;49.782;9.932;2022-11-20T01:16:03;36.00;;;20.90;;
10645;SDS011;5371;49.782;9.932;2022-11-20T01:18:31;38.43;;;22.33;;
10645;SDS011;5371;49.782;9.932;2022-11-20T01:21:00;39.27;;;21.80;;
10645;SDS011;5371;49.782;9.932;2022-11-20T01:23:30;40.00;;;22.87;;
10645;SDS011;5371;49.782;9.932;2022-11-20T01:25:58;39.40;;;21.93;;
10645;SDS011;5371;49.782;9.932;2022-11-20T01:28:28;36.23;;;21.33;;
10645;SDS011;5371;49.782;9.932;2022-11-20T01:30:55;38.37;;;21.87;;
10645;SDS011;5371;49.782;9.932;2022-11-20T01:33:22;38.13;;;21.87;;
10645;SDS011;5371;49.782;9.932;2022-11-20T01:35:49;38.93;;;21.73;;
10645;SDS011;5371;49.782;9.932;2022-11-20T01:38:16;32.77;;;20.13;;
10645;SDS011;5371;49.782;9.932;2022-11-20T01:40:43;38.27;;;22.03;;
10645;SDS011;5371;49.782;9.932;2022-11-20T01:43:12;35.53;;;20.97;;
10645;SDS011;5371;49.782;9.932;2022-11-20T01:46:00;34.83;;;20.83;;
10645;SDS011;5371;49.782;9.932;2022-11-20T01:48:34;36.80;;;20.10;;
10645;SDS011;5371;49.782;9.932;2022-11-20T01:51:05;37.77;;;21.03;;
10645;SDS011;5371;49.782;9.932;2022-11-20T01:53:39;37.40;;;21.30;;
10645;SDS011;5371;49.782;9.932;2022-11-20T01:56:07;35.93;;;20.57;;
10645;SDS011;5371;49.782;9.932;2022-11-20T01:58:42;37.70;;;21.47;;
10645;SDS011;5371;49.782;9.932;2022-11-20T02:01:15;38.33;;;21.53;;
10645;SDS011;5371;49.782;9.932;2022-11-20T02:03:42;37.17;;;21.47;;
10645;SDS011;5371;49.782;9.932;2022-11-20T02:06:11;36.37;;;20.13;;
10645;SDS011;5371;49.782;9.932;2022-11-20T02:08:43;41.50;;;22.20;;
10645;SDS011;5371;49.782;9.932;2022-11-20T02:11:12;36.53;;;21.07;;
10645;SDS011;5371;49.782;9.932;2022-11-20T02:13:39;36.00;;;20.17;;
10645;SDS011;5371;49.782;9.932;2022-11-20T02:16:13;39.77;;;22.60;;
10645;SDS011;5371;49.782;9.932;2022-11-20T02:18:45;38.47;;;22.37;;
10645;SDS011;5371;49.782;9.932;2022-11-20T02:21:15;38.20;;;21.57;;
10645;SDS011;5371;49.782;9.932;2022-11-20T02:26:43;34.90;;;20.00;;
10645;SDS011;5371;49.782;9.932;2022-11-20T02:29:15;36.30;;;21.27;;
10645;SDS011;5371;49.782;9.932;2022-11-20T02:31:45;37.37;;;20.87;;
10645;SDS011;5371;49.782;9.932;2022-11-20T02:34:13;35.67;;;20.07;;
10645;SDS011;5371;49.782;9.932;2022-11-20T02:36:40;40.87;;;22.63;;
10645;SDS011;5371;49.782;9.932;2022-11-20T02:39:10;36.33;;;20.77;;
10645;SDS011;5371;49.782;9.932;2022-11-20T02:41:42;36.80;;;21.07;;
10645;SDS011;5371;49.782;9.932;2022-11-20T02:44:09;36.57;;;20.63;;
10645;SDS011;5371;49.782;9.932;2022-11-20T02:46:36;34.77;;;20.50;;
10645;SDS011;5371;49.782;9.932;2022-11-20T02:49:03;38.60;;;20.97;;
10645;SDS011;5371;49.782;9.932;2022-11-20T02:51:31;37.87;;;21.70;;
10645;SDS011;5371;49.782;9.932;2022-11-20T02:53:58;33.07;;;19.40;;
10645;SDS011;5371;49.782;9.932;2022-11-20T02:56:27;37.00;;;21.37;;
10645;SDS011;5371;49.782;9.932;2022-11-20T02:58:54;37.40;;;21.40;;
10645;SDS011;5371;49.782;9.932;2022-11-20T03:01:21;39.00;;;22.07;;
10645;SDS011;5371;49.782;9.932;2022-11-20T03:03:48;38.17;;;22.10;;
10645;SDS011;5371;49.782;9.932;2022-11-20T03:06:15;37.83;;;21.47;;
10645;SDS011;5371;49.782;9.932;2022-11-20T03:08:42;36.77;;;22.37;;
10645;SDS011;5371;49.782;9.932;2022-11-20T03:11:09;35.50;;;20.50;;
10645;SDS011;5371;49.782;9.932;2022-11-20T03:13:38;37.83;;;21.60;;
10645;SDS011;5371;49.782;9.932;2022-11-20T03:16:06;39.23;;;21.43;;
10645;SDS011;5371;49.782;9.932;2022-11-20T03:18:37;36.70;;;20.93;;
10645;SDS011;5371;49.782;9.932;2022-11-20T03:21:04;38.23;;;21.47;;
10645;SDS011;5371;49.782;9.932;2022-11-20T03:23:32;36.10;;;21.33;;
10645;SDS011;5371;49.782;9.932;2022-11-20T03:26:12;37.03;;;20.60;;
10645;SDS011;5371;49.782;9.932;2022-11-20T03:28:42;38.23;;;20.73;;
10645;SDS011;5371;49.782;9.932;2022-11-20T03:31:14;36.33;;;20.33;;
10645;SDS011;5371;49.782;9.932;2022-11-20T03:33:42;37.33;;;21.40;;
10645;SDS011;5371;49.782;9.932;2022-11-20T03:36:10;36.73;;;21.57;;
10645;SDS011;5371;49.782;9.932;2022-11-20T03:38:38;39.10;;;21.37;;
10645;SDS011;5371;49.782;9.932;2022-11-20T03:41:07;37.07;;;21.37;;
10645;SDS011;5371;49.782;9.932;2022-11-20T03:43:35;37.70;;;20.90;;
10645;SDS011;5371;49.782;9.932;2022-11-20T03:46:04;40.20;;;21.73;;
10645;SDS011;5371;49.782;9.932;2022-11-20T03:48:31;35.83;;;20.80;;
10645;SDS011;5371;49.782;9.932;2022-11-20T03:51:08;38.50;;;20.90;;
10645;SDS011;5371;49.782;9.932;2022-11-20T03:53:36;38.97;;;21.97;;
10645;SDS011;5371;49.782;9.932;2022-11-20T03:56:03;36.83;;;22.23;;
10645;SDS011;5371;49.782;9.932;2022-11-20T03:58:30;38.70;;;21.83;;
10645;SDS011;5371;49.782;9.932;2022-11-20T04:01:04;39.13;;;22.30;;
10645;SDS011;5371;49.782;9.932;2022-11-20T04:03:32;39.10;;;21.20;;
10645;SDS011;5371;49.782;9.932;2022-11-20T04:06:01;40.23;;;22.07;;
10645;SDS011;5371;49.782;9.932;2022-11-20T04:08:29;39.60;;;21.37;;
10645;SDS011;5371;49.782;9.932;2022-11-20T04:10:56;40.03;;;21.90;;
10645;SDS011;5371;49.782;9.932;2022-11-20T04:13:23;41.13;;;21.33;;
10645;SDS011;5371;49.782;9.932;2022-11-20T04:15:50;39.97;;;21.27;;
10645;SDS011;5371;49.782;9.932;2022-11-20T04:18:19;41.83;;;21.77;;
10645;SDS011;5371;49.782;9.932;2022-11-20T04:20:46;37.80;;;21.23;;
10645;SDS011;5371;49.782;9.932;2022-11-20T04:23:13;40.90;;;22.43;;
10645;SDS011;5371;49.782;9.932;2022-11-20T04:25:40;37.00;;;21.13;;
10645;SDS011;5371;49.782;9.932;2022-11-20T04:28:06;39.93;;;22.23;;
10645;SDS011;5371;49.782;9.932;2022-11-20T04:30:33;39.63;;;22.50;;
10645;SDS011;5371;49.782;9.932;2022-11-20T04:33:00;41.93;;;23.70;;
10645;SDS011;5371;49.782;9.932;2022-11-20T04:35:28;38.50;;;21.07;;
10645;SDS011;5371;49.782;9.932;2022-11-20T04:37:55;39.47;;;21.53;;
10645;SDS011;5371;49.782;9.932;2022-11-20T04:40:22;37.13;;;21.23;;
10645;SDS011;5371;49.782;9.932;2022-11-20T04:42:49;40.47;;;21.87;;
10645;SDS011;5371;49.782;9.932;2022-11-20T04:45:16;40.40;;;21.10;;
10645;SDS011;5371;49.782;9.932;2022-11-20T04:47:43;39.50;;;21.33;;
10645;SDS011;5371;49.782;9.932;2022-11-20T04:50:10;39.20;;;21.33;;
10645;SDS011;5371;49.782;9.932;2022-11-20T04:52:38;38.07;;;21.67;;
10645;SDS011;5371;49.782;9.932;2022-11-20T04:55:05;40.10;;;21.77;;
10645;SDS011;5371;49.782;9.932;2022-11-20T04:57:33;37.73;;;21.27;;
10645;SDS011;5371;49.782;9.932;2022-11-20T05:00:00;44.13;;;22.77;;
10645;SDS011;5371;49.782;9.932;2022-11-20T05:02:27;40.10;;;22.30;;
10645;SDS011;5371;49.782;9.932;2022-11-20T05:04:54;40.87;;;22.43;;
10645;SDS011;5371;49.782;9.932;2022-11-20T05:07:20;42.43;;;22.90;;
10645;SDS011;5371;49.782;9.932;2022-11-20T05:09:49;39.10;;;22.13;;
10645;SDS011;5371;49.782;9.932;2022-11-20T05:12:15;45.00;;;23.53;;
10645;SDS011;5371;49.782;9.932;2022-11-20T05:14:42;44.27;;;22.90;;
10645;SDS011;5371;49.782;9.932;2022-11-20T05:17:10;42.20;;;23.57;;
10645;SDS011;5371;49.782;9.932;2022-11-20T05:19:37;37.20;;;21.63;;
10645;SDS011;5371;49.782;9.932;2022-11-20T05:22:04;40.23;;;23.07;;
10645;SDS011;5371;49.782;9.932;2022-11-20T05:24:31;44.20;;;23.40;;
10645;SDS011;5371;49.782;9.932;2022-11-20T05:26:59;44.33;;;22.77;;
10645;SDS011;5371;49.782;9.932;2022-11-20T05:29:26;42.93;;;22.60;;
10645;SDS011;5371;49.782;9.932;2022-11-20T05:31:53;41.57;;;22.03;;
10645;SDS011;5371;49.782;9.932;2022-11-20T05:34:20;40.70;;;22.77;;
10645;SDS011;5371;49.782;9.932;2022-11-20T05:36:47;41.97;;;22.23;;
10645;SDS011;5371;49.782;9.932;2022-11-20T05:39:14;42.40;;;23.33;;
10645;SDS011;5371;49.782;9.932;2022-11-20T05:41:41;39.83;;;22.47;;
10645;SDS011;5371;49.782;9.932;2022-11-20T05:44:11;41.87;;;22.70;;
10645;SDS011;5371;49.782;9.932;2022-11-20T05:46:39;39.13;;;22.10;;
10645;SDS011;5371;49.782;9.932;2022-11-20T05:49:06;42.83;;;22.60;;
10645;SDS011;5371;49.782;9.932;2022-11-20T05:51:33;43.07;;;22.50;;
10645;SDS011;5371;49.782;9.932;2022-11-20T05:54:00;39.87;;;22.33;;
10645;SDS011;5371;49.782;9.932;2022-11-20T05:56:27;41.57;;;22.97;;
10645;SDS011;5371;49.782;9.932;2022-11-20T05:58:54;38.53;;;22.03;;
10645;SDS011;5371;49.782;9.932;2022-11-20T06:01:23;40.10;;;22.53;;
10645;SDS011;5371;49.782;9.932;2022-11-20T06:03:52;40.13;;;22.57;;
10645;SDS011;5371;49.782;9.932;2022-11-20T06:06:20;44.47;;;23.17;;
10645;SDS011;5371;49.782;9.932;2022-11-20T06:08:47;37.50;;;21.60;;
10645;SDS011;5371;49.782;9.932;2022-11-20T06:11:14;38.63;;;22.50;;
10645;SDS011;5371;49.782;9.932;2022-11-20T06:13:42;41.80;;;23.33;;
10645;SDS011;5371;49.782;9.932;2022-11-20T06:16:09;44.47;;;23.40;;
10645;SDS011;5371;49.782;9.932;2022-11-20T06:18:38;42.10;;;23.87;;
10645;SDS011;5371;49.782;9.932;2022-11-20T06:21:06;40.70;;;22.53;;
10645;SDS011;5371;49.782;9.932;2022-11-20T06:23:35;41.80;;;23.20;;
10645;SDS011;5371;49.782;9.932;2022-11-20T06:26:02;43.30;;;22.63;;
10645;SDS011;5371;49.782;9.932;2022-11-20T06:28:31;43.90;;;23.53;;
10645;SDS011;5371;49.782;9.932;2022-11-20T06:30:58;44.73;;;24.07;;
10645;SDS011;5371;49.782;9.932;2022-11-20T06:33:25;43.63;;;22.80;;
10645;SDS011;5371;49.782;9.932;2022-11-20T06:35:55;42.87;;;23.40;;
10645;SDS011;5371;49.782;9.932;2022-11-20T06:38:23;43.67;;;23.43;;
10645;SDS011;5371;49.782;9.932;2022-11-20T06:40:50;42.03;;;23.20;;
10645;SDS011;5371;49.782;9.932;2022-11-20T06:43:17;40.40;;;22.07;;
10645;SDS011;5371;49.782;9.932;2022-11-20T06:45:44;39.10;;;22.33;;
10645;SDS011;5371;49.782;9.932;2022-11-20T06:48:11;42.53;;;22.97;;
10645;SDS011;5371;49.782;9.932;2022-11-20T06:50:37;41.80;;;23.03;;
10645;SDS011;5371;49.782;9.932;2022-11-20T06:53:06;40.77;;;21.97;;
10645;SDS011;5371;49.782;9.932;2022-11-20T06:55:33;47.00;;;23.90;;
10645;SDS011;5371;49.782;9.932;2022-11-20T06:58:00;42.33;;;22.87;;
10645;SDS011;5371;49.782;9.932;2022-11-20T07:00:27;47.07;;;23.60;;
10645;SDS011;5371;49.782;9.932;2022-11-20T07:02:54;41.20;;;22.93;;
10645;SDS011;5371;49.782;9.932;2022-11-20T07:05:21;46.43;;;23.50;;
10645;SDS011;5371;49.782;9.932;2022-11-20T07:07:48;44.33;;;22.80;;
10645;SDS011;5371;49.782;9.932;2022-11-20T07:10:16;44.83;;;23.53;;
10645;SDS011;5371;49.782;9.932;2022-11-20T07:12:48;46.80;;;24.27;;
10645;SDS011;5371;49.782;9.932;2022-11-20T07:15:16;42.97;;;23.17;;
10645;SDS011;5371;49.782;9.932;2022-11-20T07:17:43;43.83;;;22.67;;
10645;SDS011;5371;49.782;9.932;2022-11-20T07:20:11;46.07;;;24.30;;
10645;SDS011;5371;49.782;9.932;2022-11-20T07:22:38;43.77;;;23.70;;
10645;SDS011;5371;49.782;9.932;2022-11-20T07:25:06;48.67;;;24.80;;
10645;SDS011;5371;49.782;9.932;2022-11-20T07:27:34;44.90;;;24.60;;
10645;SDS011;5371;49.782;9.932;2022-11-20T07:30:01;45.13;;;23.33;;
10645;SDS011;5371;49.782;9.932;2022-11-20T07:32:29;44.40;;;23.87;;
10645;SDS011;5371;49.782;9.932;2022-11-20T07:34:56;48.67;;;25.00;;
10645;SDS011;5371;49.782;9.932;2022-11-20T07:37:23;44.93;;;23.83;;
10645;SDS011;5371;49.782;9.932;2022-11-20T07:39:50;47.77;;;24.47;;
10645;SDS011;5371;49.782;9.932;2022-11-20T07:42:17;47.17;;;23.53;;
10645;SDS011;5371;49.782;9.932;2022-11-20T07:44:45;45.20;;;23.43;;
10645;SDS011;5371;49.782;9.932;2022-11-20T07:47:12;44.37;;;23.23;;
10645;SDS011;5371;49.782;9.932;2022-11-20T07:49:39;45.30;;;23.13;;
10645;SDS011;5371;49.782;9.932;2022-11-20T07:52:06;47.63;;;23.57;;
10645;SDS011;5371;49.782;9.932;2022-11-20T07:54:33;47.53;;;24.40;;
10645;SDS011;5371;49.782;9.932;2022-11-20T07:57:00;47.10;;;24.67;;
10645;SDS011;5371;49.782;9.932;2022-11-20T07:59:27;43.30;;;22.77;;
10645;SDS011;5371;49.782;9.932;2022-11-20T08:01:57;45.30;;;24.23;;
10645;SDS011;5371;49.782;9.932;2022-11-20T08:04:24;47.03;;;23.47;;
10645;SDS011;5371;49.782;9.932;2022-11-20T08:06:51;47.20;;;23.17;;
10645;SDS011;5371;49.782;9.932;2022-11-20T08:09:18;44.30;;;23.27;;
10645;SDS011;5371;49.782;9.932;2022-11-20T08:11:45;48.80;;;24.17;;
10645;SDS011;5371;49.782;9.932;2022-11-20T08:14:30;43.07;;;22.87;;
10645;SDS011;5371;49.782;9.932;2022-11-20T08:16:58;42.10;;;22.03;;
10645;SDS011;5371;49.782;9.932;2022-11-20T08:19:25;41.77;;;23.10;;
10645;SDS011;5371;49.782;9.932;2022-11-20T08:21:52;41.50;;;21.93;;
10645;SDS011;5371;49.782;9.932;2022-11-20T08:24:19;41.20;;;22.17;;
10645;SDS011;5371;49.782;9.932;2022-11-20T08:26:47;44.03;;;22.07;;
10645;SDS011;5371;49.782;9.932;2022-11-20T08:29:14;44.03;;;22.23;;
10645;SDS011;5371;49.782;9.932;2022-11-20T08:31:41;41.43;;;21.83;;
10645;SDS011;5371;49.782;9.932;2022-11-20T08:34:09;39.20;;;21.30;;
10645;SDS011;5371;49.782;9.932;2022-11-20T08:36:36;43.23;;;22.00;;
10645;SDS011;5371;49.782;9.932;2022-11-20T08:39:04;40.23;;;21.33;;
10645;SDS011;5371;49.782;9.932;2022-11-20T08:41:30;40.70;;;20.93;;
10645;SDS011;5371;49.782;9.932;2022-11-20T08:43:59;40.87;;;22.00;;
10645;SDS011;5371;49.782;9.932;2022-11-20T08:46:28;40.47;;;21.27;;
10645;SDS011;5371;49.782;9.932;2022-11-20T08:48:59;40.80;;;21.77;;
10645;SDS011;5371;49.782;9.932;2022-11-20T08:51:28;38.97;;;21.03;;
10645;SDS011;5371;49.782;9.932;2022-11-20T08:53:55;39.70;;;21.53;;
10645;SDS011;5371;49.782;9.932;2022-11-20T08:56:22;41.33;;;21.47;;
10645;SDS011;5371;49.782;9.932;2022-11-20T08:58:49;42.07;;;21.53;;
10645;SDS011;5371;49.782;9.932;2022-11-20T09:01:17;41.63;;;21.17;;
10645;SDS011;5371;49.782;9.932;2022-11-20T09:03:45;43.03;;;21.77;;
10645;SDS011;5371;49.782;9.932;2022-11-20T09:06:12;39.43;;;20.73;;
10645;SDS011;5371;49.782;9.932;2022-11-20T09:08:41;42.83;;;21.80;;
10645;SDS011;5371;49.782;9.932;2022-11-20T09:11:08;41.03;;;21.83;;
10645;SDS011;5371;49.782;9.932;2022-11-20T09:13:36;41.73;;;21.60;;
10645;SDS011;5371;49.782;9.932;2022-11-20T09:16:04;40.43;;;22.20;;
10645;SDS011;5371;49.782;9.932;2022-11-20T09:18:33;42.07;;;22.33;;
10645;SDS011;5371;49.782;9.932;2022-11-20T09:21:03;40.30;;;21.33;;
10645;SDS011;5371;49.782;9.932;2022-11-20T09:23:33;40.37;;;21.40;;
10645;SDS011;5371;49.782;9.932;2022-11-20T09:26:03;40.20;;;21.03;;
10645;SDS011;5371;49.782;9.932;2022-11-20T09:28:31;44.17;;;22.17;;
10645;SDS011;5371;49.782;9.932;2022-11-20T09:30:58;41.60;;;22.07;;
10645;SDS011;5371;49.782;9.932;2022-11-20T09:33:25;39.40;;;20.83;;
10645;SDS011;5371;49.782;9.932;2022-11-20T09:35:52;37.03;;;20.90;;
10645;SDS011;5371;49.782;9.932;2022-11-20T09:38:19;34.97;;;19.13;;
10645;SDS011;5371;49.782;9.932;2022-11-20T09:40:49;35.20;;;19.03;;
10645;SDS011;5371;49.782;9.932;2022-11-20T09:43:26;32.30;;;18.60;;
10645;SDS011;5371;49.782;9.932;2022-11-20T09:46:08;33.60;;;18.83;;
10645;SDS011;5371;49.782;9.932;2022-11-20T09:49:00;36.57;;;20.27;;
10645;SDS011;5371;49.782;9.932;2022-11-20T09:51:39;37.47;;;20.87;;
10645;SDS011;5371;49.782;9.932;2022-11-20T09:54:14;43.83;;;21.63;;
10645;SDS011;5371;49.782;9.932;2022-11-20T09:56:44;41.13;;;23.10;;
10645;SDS011;5371;49.782;9.932;2022-11-20T09:59:23;41.37;;;24.53;;
10645;SDS011;5371;49.782;9.932;2022-11-20T10:01:58;35.13;;;19.70;;
10645;SDS011;5371;49.782;9.932;2022-11-20T10:04:27;36.70;;;19.67;;
10645;SDS011;5371;49.782;9.932;2022-11-20T10:07:00;37.33;;;21.20;;
10645;SDS011;5371;49.782;9.932;2022-11-20T10:09:31;34.40;;;20.10;;
10645;SDS011;5371;49.782;9.932;2022-11-20T10:12:07;37.63;;;20.20;;
10645;SDS011;5371;49.782;9.932;2022-11-20T10:14:46;34.07;;;19.87;;
10645;SDS011;5371;49.782;9.932;2022-11-20T10:17:27;36.40;;;22.17;;
10645;SDS011;5371;49.782;9.932;2022-11-20T10:20:14;34.30;;;19.83;;
10645;SDS011;5371;49.782;9.932;2022-11-20T10:22:52;33.03;;;18.90;;
10645;SDS011;5371;49.782;9.932;2022-11-20T10:25:38;30.53;;;19.00;;
10645;SDS011;5371;49.782;9.932;2022-11-20T10:28:10;28.73;;;17.77;;
10645;SDS011;5371;49.782;9.932;2022-11-20T10:30:53;31.87;;;19.10;;
10645;SDS011;5371;49.782;9.932;2022-11-20T10:33:24;31.20;;;19.10;;
10645;SDS011;5371;49.782;9.932;2022-11-20T10:36:00;28.93;;;17.67;;
10645;SDS011;5371;49.782;9.932;2022-11-20T10:38:37;26.63;;;17.27;;
10645;SDS011;5371;49.782;9.932;2022-11-20T10:41:11;25.10;;;16.27;;
10645;SDS011;5371;49.782;9.932;2022-11-20T10:43:56;23.80;;;15.00;;
10645;SDS011;5371;49.782;9.932;2022-11-20T10:46:32;25.97;;;16.07;;
10645;SDS011;5371;49.782;9.932;2022-11-20T10:49:22;23.83;;;15.63;;
10645;SDS011;5371;49.782;9.932;2022-11-20T10:51:52;23.40;;;15.03;;
10645;SDS011;5371;49.782;9.932;2022-11-20T10:54:32;23.97;;;15.10;;
10645;SDS011;5371;49.782;9.932;2022-11-20T10:57:06;22.20;;;15.00;;
10645;SDS011;5371;49.782;9.932;2022-11-20T10:59:46;22.97;;;15.57;;
10645;SDS011;5371;49.782;9.932;2022-11-20T11:02:24;23.17;;;15.33;;
10645;SDS011;5371;49.782;9.932;2022-11-20T11:04:57;20.73;;;14.23;;
10645;SDS011;5371;49.782;9.932;2022-11-20T11:07:33;20.63;;;14.53;;
10645;SDS011;5371;49.782;9.932;2022-11-20T11:10:05;23.07;;;14.87;;
10645;SDS011;5371;49.782;9.932;2022-11-20T11:12:43;22.53;;;14.17;;
10645;SDS011;5371;49.782;9.932;2022-11-20T11:15:12;20.70;;;13.77;;
10645;SDS011;5371;49.782;9.932;2022-11-20T11:17:47;21.13;;;13.67;;
10645;SDS011;5371;49.782;9.932;2022-11-20T11:20:15;22.07;;;14.30;;
10645;SDS011;5371;49.782;9.932;2022-11-20T11:22:45;22.00;;;13.57;;
10645;SDS011;5371;49.782;9.932;2022-11-20T11:25:27;21.83;;;13.57;;
10645;SDS011;5371;49.782;9.932;2022-11-20T11:27:59;19.47;;;12.03;;
10645;SDS011;5371;49.782;9.932;2022-11-20T11:30:27;19.63;;;12.47;;
10645;SDS011;5371;49.782;9.932;2022-11-20T11:33:05;16.63;;;11.77;;
10645;SDS011;5371;49.782;9.932;2022-11-20T11:35:38;18.70;;;12.00;;
10645;SDS011;5371;49.782;9.932;2022-11-20T11:38:12;16.97;;;10.80;;
10645;SDS011;5371;49.782;9.932;2022-11-20T11:40:42;17.33;;;12.00;;
10645;SDS011;5371;49.782;9.932;2022-11-20T11:43:16;16.67;;;10.83;;
10645;SDS011;5371;49.782;9.932;2022-11-20T11:46:04;17.47;;;11.33;;
10645;SDS011;5371;49.782;9.932;2022-11-20T11:48:55;16.03;;;11.30;;
10645;SDS011;5371;49.782;9.932;2022-11-20T11:51:28;16.40;;;10.83;;
10645;SDS011;5371;49.782;9.932;2022-11-20T11:54:00;17.57;;;11.53;;
10645;SDS011;5371;49.782;9.932;2022-11-20T11:56:31;17.87;;;11.13;;
10645;SDS011;5371;49.782;9.932;2022-11-20T11:59:00;16.33;;;10.73;;
10645;SDS011;5371;49.782;9.932;2022-11-20T12:01:33;15.67;;;10.73;;
10645;SDS011;5371;49.782;9.932;2022-11-20T12:04:10;18.47;;;11.33;;
10645;SDS011;5371;49.782;9.932;2022-11-20T12:06:44;17.40;;;11.10;;
10645;SDS011;5371;49.782;9.932;2022-11-20T12:09:13;20.13;;;10.80;;
10645;SDS011;5371;49.782;9.932;2022-11-20T12:11:43;17.27;;;11.20;;
10645;SDS011;5371;49.782;9.932;2022-11-20T12:14:17;15.47;;;10.33;;
10645;SDS011;5371;49.782;9.932;2022-11-20T12:16:49;14.43;;;9.93;;
10645;SDS011;5371;49.782;9.932;2022-11-20T12:19:19;14.33;;;9.40;;
10645;SDS011;5371;49.782;9.932;2022-11-20T12:21:49;14.00;;;9.20;;
10645;SDS011;5371;49.782;9.932;2022-11-20T12:27:23;15.70;;;9.77;;
10645;SDS011;5371;49.782;9.932;2022-11-20T12:30:03;13.43;;;9.13;;
10645;SDS011;5371;49.782;9.932;2022-11-20T12:32:42;13.50;;;9.33;;
10645;SDS011;5371;49.782;9.932;2022-11-20T12:35:28;19.13;;;11.50;;
10645;SDS011;5371;49.782;9.932;2022-11-20T12:38:08;16.13;;;10.03;;
10645;SDS011;5371;49.782;9.932;2022-11-20T12:40:54;14.73;;;9.90;;
10645;SDS011;5371;49.782;9.932;2022-11-20T12:43:30;13.07;;;9.17;;
10645;SDS011;5371;49.782;9.932;2022-11-20T12:46:18;13.90;;;9.83;;
10645;SDS011;5371;49.782;9.932;2022-11-20T12:51:50;10.67;;;7.90;;
10645;SDS011;5371;49.782;9.932;2022-11-20T12:57:18;12.37;;;8.73;;
10645;SDS011;5371;49.782;9.932;2022-11-20T12:59:56;10.67;;;8.13;;
10645;SDS011;5371;49.782;9.932;2022-11-20T13:05:47;12.53;;;8.17;;
10645;SDS011;5371;49.782;9.932;2022-11-20T13:08:24;13.23;;;9.20;;
10645;SDS011;5371;49.782;9.932;2022-11-20T13:10:56;12.67;;;8.73;;
10645;SDS011;5371;49.782;9.932;2022-11-20T13:13:31;11.50;;;8.30;;
10645;SDS011;5371;49.782;9.932;2022-11-20T13:16:06;12.47;;;8.83;;
10645;SDS011;5371;49.782;9.932;2022-11-20T13:18:40;12.43;;;8.90;;
10645;SDS011;5371;49.782;9.932;2022-11-20T13:21:14;12.80;;;9.20;;
10645;SDS011;5371;49.782;9.932;2022-11-20T13:23:44;12.70;;;8.93;;
10645;SDS011;5371;49.782;9.932;2022-11-20T13:26:15;13.00;;;8.90;;
10645;SDS011;5371;49.782;9.932;2022-11-20T13:28:47;12.37;;;8.83;;
10645;SDS011;5371;49.782;9.932;2022-11-20T13:31:28;14.77;;;9.47;;
10645;SDS011;5371;49.782;9.932;2022-11-20T13:33:57;10.80;;;8.40;;
10645;SDS011;5371;49.782;9.932;2022-11-20T13:36:28;14.87;;;9.80;;
10645;SDS011;5371;49.782;9.932;2022-11-20T13:38:59;14.97;;;9.40;;
10645;SDS011;5371;49.782;9.932;2022-11-20T13:41:26;13.67;;;8.80;;
10645;SDS011;5371;49.782;9.932;2022-11-20T13:44:04;12.33;;;8.97;;
10645;SDS011;5371;49.782;9.932;2022-11-20T13:46:37;11.00;;;8.47;;
10645;SDS011;5371;49.782;9.932;2022-11-20T13:49:08;11.80;;;8.77;;
10645;SDS011;5371;49.782;9.932;2022-11-20T13:51:42;11.67;;;8.60;;
10645;SDS011;5371;49.782;9.932;2022-11-20T13:57:25;11.97;;;8.63;;
10645;SDS011;5371;49.782;9.932;2022-11-20T14:00:17;12.17;;;8.73;;
10645;SDS011;5371;49.782;9.932;2022-11-20T14:02:47;12.40;;;8.97;;
10645;SDS011;5371;49.782;9.932;2022-11-20T14:05:25;11.80;;;8.70;;
10645;SDS011;5371;49.782;9.932;2022-11-20T14:07:53;11.53;;;8.87;;
10645;SDS011;5371;49.782;9.932;2022-11-20T14:10:21;11.67;;;8.00;;
10645;SDS011;5371;49.782;9.932;2022-11-20T14:12:51;11.87;;;8.60;;
10645;SDS011;5371;49.782;9.932;2022-11-20T14:15:25;11.87;;;8.67;;
10645;SDS011;5371;49.782;9.932;2022-11-20T14:17:54;12.90;;;8.53;;
10645;SDS011;5371;49.782;9.932;2022-11-20T14:20:22;13.10;;;8.43;;
10645;SDS011;5371;49.782;9.932;2022-11-20T14:22:52;12.67;;;9.17;;
10645;SDS011;5371;49.782;9.932;2022-11-20T14:25:20;10.27;;;7.23;;
10645;SDS011;5371;49.782;9.932;2022-11-20T14:27:54;10.77;;;7.43;;
10645;SDS011;5371;49.782;9.932;2022-11-20T14:30:23;10.23;;;7.20;;
10645;SDS011;5371;49.782;9.932;2022-11-20T14:32:51;9.87;;;7.37;;
10645;SDS011;5371;49.782;9.932;2022-11-20T14:35:21;11.07;;;8.07;;
10645;SDS011;5371;49.782;9.932;2022-11-20T14:37:51;11.47;;;8.00;;
10645;SDS011;5371;49.782;9.932;2022-11-20T14:40:23;10.60;;;7.43;;
10645;SDS011;5371;49.782;9.932;2022-11-20T14:42:54;9.07;;;7.17;;
10645;SDS011;5371;49.782;9.932;2022-11-20T14:45:21;9.40;;;7.10;;
10645;SDS011;5371;49.782;9.932;2022-11-20T14:47:50;10.13;;;7.13;;
10645;SDS011;5371;49.782;9.932;2022-11-20T14:50:19;11.70;;;7.57;;
10645;SDS011;5371;49.782;9.932;2022-11-20T14:52:53;12.30;;;8.07;;
10645;SDS011;5371;49.782;9.932;2022-11-20T14:55:28;14.80;;;9.30;;
10645;SDS011;5371;49.782;9.932;2022-11-20T14:57:59;12.10;;;8.40;;
10645;SDS011;5371;49.782;9.932;2022-11-20T15:00:27;11.33;;;8.20;;
10645;SDS011;5371;49.782;9.932;2022-11-20T15:02:55;10.67;;;7.97;;
10645;SDS011;5371;49.782;9.932;2022-11-20T15:05:23;12.67;;;8.57;;
10645;SDS011;5371;49.782;9.932;2022-11-20T15:08:03;12.17;;;8.33;;
10645;SDS011;5371;49.782;9.932;2022-11-20T15:10:32;12.30;;;9.07;;
10645;SDS011;5371;49.782;9.932;2022-11-20T15:13:02;11.80;;;8.30;;